Have a Safe July 4th! 

Flight Track Log - Related Links

Times and Time Zones

All times are in EDT time to prevent confusion due to time zone crossing. See the FDX1570 flight status page for this flight to view local times or setup timezone preferences in your user account.

Time Position Orientation Groundspeed Altitude Reporting Facility
EDT Latitude Longitude Course Direction KTS MPH feet Rate Location/Type
Tue 04:41:43 AM 35.0167 -89.9667 180° South 180 207 1,100  Level KMEM
Tue 04:42:07 AM 35.0000 -89.9667 180° South 197 227 1,900 2,329 Climbing KMEM
Tue 04:43:08 AM 34.9333 -89.9333 158° South 252 290 4,400 2,166 Climbing KMEM
Tue 04:44:56 AM 34.8125 -89.8842 162° South 281 323 8,000 1,286 Climbing Memphis Center
Tue 04:45:56 AM 34.7433 -89.8442 155° Southeast 276 318 8,000 550 Level Memphis Center
Tue 04:46:56 AM 34.6744 -89.8014 153° Southeast 270 311 9,100 500 Climbing Memphis Center
Tue 04:47:56 AM 34.6075 -89.7617 154° Southeast 277 319 9,000  Descending Memphis Center
Tue 04:48:56 AM 34.5653 -89.6761 121° Southeast 272 313 9,100 1,050 Climbing Memphis Center
Tue 04:49:56 AM 34.5311 -89.5781 113° Southeast 289 333 11,100 1,850 Climbing Memphis Center
Tue 04:50:56 AM 34.5325 -89.4519 89° East 358 412 12,800 2,200 Climbing Memphis Center
Tue 04:51:56 AM 34.5942 -89.3328 58° Northeast 370 426 15,500 2,550 Climbing Memphis Center
Tue 04:52:56 AM 34.6703 -89.2208 50° Northeast 412 474 17,900 2,150 Climbing Memphis Center
Tue 04:53:56 AM 34.7464 -89.1061 51° Northeast 427 491 19,800 1,950 Climbing Memphis Center
Tue 04:54:56 AM 34.8225 -88.9861 52° Northeast 445 512 21,800 1,750 Climbing Memphis Center
Tue 04:55:56 AM 34.9022 -88.8631 52° Northeast 453 521 23,300 1,500 Climbing Memphis Center
Tue 04:56:56 AM 34.9861 -88.7350 51° Northeast 472 543 24,800 1,550 Climbing Memphis Center
Tue 04:57:56 AM 35.0761 -88.5936 52° Northeast 472 543 26,400 1,750 Climbing Memphis Center
Tue 04:58:56 AM 35.1617 -88.4622 51° Northeast 488 562 28,300 1,691 Climbing Memphis Center
Tue 05:04:12 AM 35.5870 -87.7910 51° Northeast 465 535 37,000 1,446 Climbing FlightAware ADS-B
Tue 05:04:57 AM 35.6440 -87.7000 52° Northeast 470 541 37,000  Level FlightAware ADS-B
Tue 05:05:37 AM 35.6940 -87.6190 53° Northeast 473 544 37,000  Level FlightAware ADS-B
Tue 05:06:22 AM 35.7540 -87.5250 52° Northeast 475 547 37,000  Level FlightAware ADS-B
Tue 05:07:02 AM 35.8080 -87.4370 53° Northeast 468 539 37,000  Level FlightAware ADS-B
Tue 05:07:42 AM 35.8610 -87.3530 52° Northeast 465 535 37,000  Level FlightAware ADS-B
Tue 05:08:27 AM 35.9190 -87.2580 53° Northeast 461 531 37,000  Level FlightAware ADS-B
Tue 05:08:53 AM 35.9592 -87.1935 52° Northeast 461 531 37,000  Level FlightAware ADS-B
Tue 05:09:24 AM 35.9981 -87.1306 53° Northeast 461 531 37,000  Level FlightAware ADS-B
Tue 05:09:54 AM 36.0375 -87.0658 53° Northeast 459 528 37,000  Level FlightAware ADS-B
Tue 05:10:26 AM 36.0786 -86.9991 53° Northeast 459 528 37,000  Level FlightAware ADS-B
Tue 05:10:56 AM 36.1174 -86.9364 53° Northeast 460 529 37,000  Level FlightAware ADS-B
Tue 05:11:42 AM 36.1754 -86.8419 53° Northeast 462 532 37,000  Level FlightAware ADS-B
Tue 05:12:12 AM 36.2149 -86.7763 53° Northeast 463 533 37,000  Level FlightAware ADS-B
Tue 05:13:22 AM 36.3040 -86.6300 53° Northeast 466 536 37,000  Level FlightAware ADS-B
Tue 05:14:02 AM 36.3560 -86.5440 53° Northeast 465 535 37,000  Level FlightAware ADS-B
Tue 05:14:42 AM 36.4070 -86.4610 53° Northeast 461 531 37,000  Level FlightAware ADS-B
Tue 05:15:27 AM 36.4600 -86.3720 53° Northeast 458 527 37,000  Level FlightAware ADS-B
Tue 05:16:07 AM 36.5130 -86.2840 53° Northeast 457 526 37,000  Level FlightAware ADS-B
Tue 05:16:20 AM 36.5332 -86.2503 53° Northeast 457 526 37,000  Level FlightAware ADS-B
Tue 05:16:50 AM 36.5716 -86.1871 53° Northeast 457 526 37,000  Level FlightAware ADS-B
Tue 05:17:21 AM 36.6099 -86.1218 54° Northeast 457 526 37,000  Level FlightAware ADS-B
Tue 05:17:51 AM 36.6481 -86.0586 53° Northeast 456 525 37,000  Level FlightAware ADS-B
Tue 05:18:21 AM 36.6859 -85.9952 53° Northeast 457 526 37,000  Level FlightAware ADS-B
Tue 05:18:52 AM 36.7243 -85.9318 53° Northeast 456 525 37,000  Level FlightAware ADS-B
Tue 05:19:22 AM 36.7620 -85.8684 53° Northeast 456 525 37,000  Level FlightAware ADS-B
Tue 05:19:52 AM 36.7998 -85.8029 54° Northeast 456 525 37,000  Level FlightAware ADS-B
Tue 05:20:32 AM 36.8502 -85.7183 53° Northeast 456 525 37,000  Level FlightAware ADS-B
Tue 05:21:32 AM 36.9230 -85.5970 53° Northeast 457 526 37,000  Level FlightAware ADS-B
Tue 05:21:36 AM 36.9302 -85.5822 59° Northeast 456 525 37,000  Level FlightAware ADS-B
Tue 05:22:06 AM 36.9686 -85.5180 53° Northeast 459 528 37,000  Level FlightAware ADS-B
Tue 05:22:42 AM 37.0136 -85.4413 54° Northeast 459 528 37,000  Level FlightAware ADS-B
Tue 05:23:16 AM 37.0561 -85.3685 54° Northeast 459 528 37,000  Level FlightAware ADS-B
Tue 05:23:47 AM 37.0943 -85.3039 53° Northeast 460 529 37,000  Level FlightAware ADS-B
Tue 05:24:19 AM 37.1347 -85.2350 54° Northeast 462 532 37,000  Level FlightAware ADS-B
Tue 05:24:52 AM 37.1765 -85.1616 54° Northeast 461 531 37,000  Level FlightAware ADS-B
Tue 05:25:24 AM 37.2170 -85.0923 54° Northeast 461 531 37,000  Level FlightAware ADS-B
Tue 05:25:56 AM 37.2573 -85.0232 54° Northeast 460 529 37,000  Level FlightAware ADS-B
Tue 05:26:52 AM 37.3250 -84.9060 54° Northeast 459 528 37,000  Level FlightAware ADS-B
Tue 05:27:08 AM 37.3470 -84.8677 54° Northeast 458 527 37,000  Level FlightAware ADS-B
Tue 05:27:59 AM 37.4099 -84.7580 54° Northeast 457 526 37,000  Level FlightAware ADS-B
Tue 05:29:12 AM 37.4930 -84.6140 54° Northeast 457 526 37,000  Level FlightAware ADS-B
Tue 05:29:52 AM 37.5360 -84.5400 54° Northeast 457 526 37,000  Level FlightAware ADS-B
Tue 05:30:32 AM 37.5780 -84.4670 54° Northeast 457 526 37,000  Level FlightAware ADS-B
Tue 05:31:17 AM 37.6520 -84.3340 55° Northeast 460 529 37,000  Level FlightAware ADS-B
Tue 05:32:02 AM 37.7100 -84.2320 54° Northeast 461 531 37,000  Level FlightAware ADS-B
Tue 05:32:42 AM 37.7590 -84.1460 54° Northeast 460 529 37,000  Level FlightAware ADS-B
Tue 05:33:27 AM 37.8110 -84.0540 54° Northeast 459 528 37,000  Level FlightAware ADS-B
Tue 05:34:07 AM 37.8630 -83.9600 55° Northeast 460 529 37,000  Level FlightAware ADS-B
Tue 05:34:32 AM 37.8958 -83.9025 54° Northeast 460 529 37,000  Level FlightAware ADS-B
Tue 05:35:27 AM 37.9570 -83.7940 54° Northeast 461 531 37,000  Level FlightAware ADS-B
Tue 05:36:27 AM 38.0320 -83.6610 54° Northeast 462 532 37,000  Level FlightAware ADS-B
Tue 05:37:07 AM 38.0740 -83.5860 55° Northeast 462 532 37,000  Level FlightAware ADS-B
Tue 05:38:07 AM 38.1390 -83.4740 54° Northeast 462 532 37,000  Level FlightAware ADS-B
Tue 05:38:42 AM 38.2000 -83.3540 57° Northeast 464 534 37,000  Level FlightAware ADS-B
Tue 05:39:32 AM 38.2630 -83.2400 55° Northeast 464 534 37,000  Level FlightAware ADS-B
Tue 05:40:12 AM 38.3130 -83.1480 55° Northeast 466 536 37,000  Level FlightAware ADS-B
Tue 05:40:57 AM 38.3670 -83.0490 55° Northeast 465 535 37,000  Level FlightAware ADS-B
Tue 05:41:37 AM 38.4180 -82.9540 56° Northeast 463 533 37,000  Level FlightAware ADS-B
Tue 05:42:22 AM 38.4720 -82.8550 55° Northeast 462 532 37,000  Level FlightAware ADS-B
Tue 05:43:02 AM 38.5190 -82.7680 55° Northeast 462 532 37,000  Level FlightAware ADS-B
Tue 05:43:42 AM 38.5680 -82.6780 55° Northeast 461 531 37,000  Level FlightAware ADS-B
Tue 05:44:27 AM 38.6240 -82.5730 56° Northeast 460 529 37,000  Level FlightAware ADS-B
Tue 05:45:07 AM 38.6710 -82.4850 56° Northeast 459 528 37,000  Level FlightAware ADS-B
Tue 05:45:52 AM 38.7220 -82.3910 55° Northeast 457 526 37,000  Level FlightAware ADS-B
Tue 05:46:32 AM 38.7690 -82.3040 55° Northeast 456 525 37,000  Level FlightAware ADS-B
Tue 05:47:12 AM 38.8200 -82.2080 56° Northeast 456 525 37,000  Level FlightAware ADS-B
Tue 05:47:52 AM 38.8690 -82.1170 55° Northeast 457 526 37,000  Level FlightAware ADS-B
Tue 05:48:37 AM 38.9230 -82.0160 55° Northeast 456 525 37,000  Level FlightAware ADS-B
Tue 05:49:22 AM 38.9750 -81.9170 56° Northeast 457 526 37,000  Level FlightAware ADS-B
Tue 05:50:12 AM 39.0340 -81.8050 56° Northeast 457 526 37,000  Level FlightAware ADS-B
Tue 05:50:57 AM 39.0890 -81.7010 56° Northeast 458 527 37,000  Level FlightAware ADS-B
Tue 05:51:37 AM 39.1360 -81.6100 56° Northeast 457 526 37,000  Level FlightAware ADS-B
Tue 05:52:22 AM 39.1880 -81.5110 56° Northeast 456 525 37,000  Level FlightAware ADS-B
Tue 05:53:02 AM 39.2360 -81.4180 56° Northeast 456 525 37,000  Level FlightAware ADS-B
Tue 05:53:42 AM 39.2820 -81.3280 57° Northeast 455 524 37,000  Level FlightAware ADS-B
Tue 05:54:22 AM 39.3280 -81.2400 56° Northeast 456 525 37,000  Level FlightAware ADS-B
Tue 05:55:07 AM 39.3790 -81.1420 56° Northeast 458 527 37,000  Level FlightAware ADS-B
Tue 05:55:32 AM 39.4090 -81.0850 56° Northeast 459 528 37,000  Level FlightAware ADS-B
Tue 05:56:27 AM 39.4760 -80.9520 57° Northeast 462 532 37,000  Level FlightAware ADS-B
Tue 05:57:07 AM 39.5240 -80.8600 56° Northeast 464 534 37,000  Level FlightAware ADS-B
Tue 05:57:47 AM 39.5720 -80.7660 56° Northeast 467 537 37,000  Level FlightAware ADS-B
Tue 05:58:27 AM 39.6200 -80.6730 56° Northeast 467 537 37,000  Level FlightAware ADS-B
Tue 05:59:17 AM 39.6800 -80.5530 57° Northeast 467 537 37,000  Level FlightAware ADS-B
Tue 05:59:57 AM 39.7260 -80.4620 57° Northeast 467 537 37,000  Level FlightAware ADS-B
Tue 06:00:32 AM 39.7640 -80.3870 57° Northeast 467 537 37,000  Level FlightAware ADS-B
Tue 06:01:17 AM 39.8170 -80.2810 57° Northeast 466 536 37,000  Level FlightAware ADS-B
Tue 06:01:57 AM 39.8640 -80.1880 57° Northeast 464 534 37,000  Level FlightAware ADS-B
Tue 06:02:42 AM 39.9160 -80.0820 57° Northeast 464 534 37,000  Level FlightAware ADS-B
Tue 06:03:37 AM 39.9790 -79.9560 57° Northeast 464 534 37,000  Level FlightAware ADS-B
Tue 06:04:17 AM 40.0270 -79.8590 57° Northeast 463 533 37,000  Level FlightAware ADS-B
Tue 06:05:02 AM 40.0800 -79.7540 57° Northeast 463 533 37,000  Level FlightAware ADS-B
Tue 06:05:42 AM 40.1250 -79.6620 57° Northeast 464 534 37,000  Level FlightAware ADS-B
Tue 06:06:22 AM 40.1720 -79.5650 58° Northeast 464 534 37,000  Level FlightAware ADS-B
Tue 06:06:57 AM 40.2120 -79.4850 57° Northeast 464 534 37,000  Level FlightAware ADS-B
Tue 06:07:42 AM 40.2650 -79.3750 58° Northeast 468 539 37,000  Level FlightAware ADS-B
Tue 06:08:27 AM 40.3160 -79.2700 57° Northeast 468 539 37,000  Level FlightAware ADS-B
Tue 06:09:07 AM 40.3640 -79.1720 57° Northeast 471 542 37,000  Level FlightAware ADS-B
Tue 06:09:42 AM 40.4050 -79.0870 58° Northeast 473 544 37,000  Level FlightAware ADS-B
Tue 06:10:37 AM 40.4690 -78.9530 58° Northeast 476 548 37,000  Level FlightAware ADS-B
Tue 06:11:27 AM 40.5280 -78.8310 58° Northeast 478 550 37,000  Level FlightAware ADS-B
Tue 06:12:07 AM 40.5750 -78.7320 58° Northeast 478 550 37,000  Level FlightAware ADS-B
Tue 06:12:52 AM 40.6320 -78.6160 57° Northeast 478 550 37,000  Level FlightAware ADS-B
Tue 06:13:47 AM 40.6870 -78.4980 58° Northeast 479 551 37,000  Level FlightAware ADS-B
Tue 06:14:27 AM 40.7360 -78.3940 58° Northeast 480 552 37,000  Level FlightAware ADS-B
Tue 06:15:12 AM 40.7890 -78.2840 58° Northeast 480 552 37,000  Level FlightAware ADS-B
Tue 06:16:02 AM 40.8470 -78.1600 58° Northeast 481 554 37,000  Level FlightAware ADS-B
Tue 06:16:42 AM 40.9030 -78.0650 52° Northeast 481 554 37,000 -600 Level FlightAware ADS-B
Tue 06:17:22 AM 40.9620 -77.9760 49° Northeast 481 554 36,200 -1,200 Descending FlightAware ADS-B
Tue 06:18:02 AM 41.0200 -77.8880 49° Northeast 481 554 35,400 -1,482 Descending FlightAware ADS-B
Tue 06:18:47 AM 41.0880 -77.7880 48° Northeast 491 565 34,100 -1,624 Descending FlightAware ADS-B
Tue 06:19:27 AM 41.1470 -77.6990 49° Northeast 496 571 33,100 -1,482 Descending FlightAware ADS-B
Tue 06:20:12 AM 41.2160 -77.5960 48° Northeast 500 575 32,000 -1,533 Descending FlightAware ADS-B
Tue 06:20:57 AM 41.2850 -77.4910 49° Northeast 505 581 30,800 -1,629 Descending FlightAware ADS-B
Tue 06:21:22 AM 41.3250 -77.4300 49° Northeast 508 585 30,100 -1,543 Descending FlightAware ADS-B
Tue 06:22:07 AM 41.3950 -77.3240 49° Northeast 513 590 29,000 -776 Descending FlightAware ADS-B
Tue 06:22:47 AM 41.4570 -77.2280 49° Northeast 513 590 29,000  Level FlightAware ADS-B
Tue 06:23:27 AM 41.5190 -77.1330 49° Northeast 511 588 29,000  Level FlightAware ADS-B
Tue 06:24:12 AM 41.5900 -77.0240 49° Northeast 507 583 29,000  Level FlightAware ADS-B
Tue 06:24:52 AM 41.6490 -76.9340 49° Northeast 507 583 29,000  Level FlightAware ADS-B
Tue 06:25:37 AM 41.7160 -76.8300 49° Northeast 505 581 29,000  Level FlightAware ADS-B
Tue 06:26:17 AM 41.7860 -76.7230 49° Northeast 500 575 29,000 -212 Level FlightAware ADS-B
Tue 06:27:02 AM 41.8460 -76.6290 49° Northeast 495 570 28,700 -847 Descending FlightAware ADS-B
Tue 06:27:42 AM 41.9060 -76.5340 50° Northeast 494 568 27,800 -1,482 Descending FlightAware ADS-B
Tue 06:28:27 AM 41.9750 -76.4260 49° Northeast 496 571 26,600 -1,341 Descending FlightAware ADS-B
Tue 06:29:07 AM 42.0310 -76.3370 50° Northeast 490 564 25,900 -1,275 Descending FlightAware ADS-B
Tue 06:29:47 AM 42.0930 -76.2380 50° Northeast 485 558 24,900 -1,140 Descending FlightAware ADS-B
Tue 06:30:47 AM 42.1680 -76.0950 55° Northeast 484 557 24,000 -568 Descending FlightAware ADS-B
Tue 06:31:22 AM 42.2000 -76.0050 64° Northeast 484 557 24,000  Level FlightAware ADS-B
Tue 06:32:17 AM 42.2350 -75.8440 74° East 489 563 24,000  Level FlightAware ADS-B
Tue 06:33:07 AM 42.2680 -75.7220 70° East 489 563 24,000  Level FlightAware ADS-B
Tue 06:33:47 AM 42.2950 -75.6250 69° East 489 563 24,000  Level FlightAware ADS-B
Tue 06:34:27 AM 42.3210 -75.5270 70° East 489 563 24,000 -1,950 Level FlightAware ADS-B
Tue 06:35:07 AM 42.3680 -75.3320 72° East 475 547 21,400 -2,329 Descending FlightAware ADS-B
Tue 06:35:52 AM 42.3980 -75.2160 71° East 473 544 20,700 -494 Descending FlightAware ADS-B
Tue 06:36:32 AM 42.4240 -75.1220 69° East 473 544 20,700  Level FlightAware ADS-B
Tue 06:37:12 AM 42.4490 -75.0270 70° East 473 544 20,700  Level FlightAware ADS-B
Tue 06:37:52 AM 42.4750 -74.9320 70° East 473 544 20,700  Level FlightAware ADS-B
Tue 06:38:42 AM 42.5060 -74.8140 70° East 473 544 20,700 -6,276 Level FlightAware ADS-B
Tue 06:39:19 AM 42.5303 -74.6856 70° East 391 450 11,600 -7,944 Descending Boston Center
Tue 06:39:53 AM 42.5461 -74.6297 69° East 388 447 11,300 -492 Descending Boston Center
Tue 06:40:20 AM 42.5617 -74.5683 71° East 318 366 11,100 -900 Descending Boston Center
Tue 06:40:53 AM 42.5775 -74.5042 71° East 325 374 10,400 -1,300 Descending Boston Center
Tue 06:41:20 AM 42.5969 -74.4653 56° Northeast 300 345 9,800 -1,300 Descending Boston Center
Tue 06:41:53 AM 42.6228 -74.4181 53° Northeast 299 344 9,100 -1,574 Descending Boston Center
Tue 06:42:21 AM 42.6467 -74.3681 57° Northeast 297 342 8,200 -1,700 Descending Boston Center
Tue 06:42:53 AM 42.6706 -74.3181 57° Northeast 299 344 7,400 -1,475 Descending Boston Center
Tue 06:43:22 AM 42.6939 -74.2819 49° Northeast 293 337 6,700 -1,400 Descending Boston Center
Tue 06:43:53 AM 42.7133 -74.2344 61° Northeast 299 344 6,000 -1,400 Descending Boston Center
Tue 06:44:22 AM 42.7392 -74.1900 52° Northeast 292 336 5,300 -1,400 Descending Boston Center
Tue 06:44:53 AM 42.7628 -74.1369 59° Northeast 294 338 4,600 -1,377 Descending Boston Center
Tue 06:45:23 AM 42.7822 -74.0978 56° Northeast 286 329 3,900 -1,200 Descending Boston Center
Tue 06:45:53 AM 42.8056 -74.0617 49° Northeast 289 333 3,400 -885 Descending Boston Center
Tue 06:46:24 AM 42.8314 -74.0086 56° Northeast 272 313 3,000 -400 Descending Boston Center
Tue 06:46:53 AM 42.8464 -73.9778 56° Northeast 277 319 3,000  Level Boston Center
Tue 06:47:24 AM 42.8678 -73.9331 57° Northeast 232 267 3,000 -300 Level Boston Center
Tue 06:47:53 AM 42.8808 -73.9022 60° Northeast 248 285 2,700 -590 Descending Boston Center
Tue 06:48:25 AM 42.9003 -73.8544 61° Northeast 224 258 2,400 -500 Descending Boston Center
Tue 06:48:53 AM 42.8881 -73.8231 118° Southeast 216 249 2,200 -393 Descending Boston Center
Tue 06:49:26 AM 42.8631 -73.8139 165° South 172 198 2,000 -200 Descending Boston Center
Tue 06:49:53 AM 42.8719 -73.7744 73° East 162 186 2,000 -500 Level Boston Center
Tue 06:50:26 AM 42.8194 -73.8100 206° Southwest 156 180 1,500 -766 Descending Boston Center
Tue 06:51:27 AM 42.7839 -73.8064 176° South 119 137 800 -689 Descending Boston Center
Tue 06:53:00 AM 42.7491 -73.8020 190° South  Level Estimated

Login

Don't have an account? Register now (free) for customized features, flight alerts, and more!